createdAt,value
2018-11-25T00:03:41.635Z,10.30
2018-11-25T00:07:53.691Z,11.17
2018-11-25T00:12:05.861Z,10.37
2018-11-25T00:16:17.984Z,10.47
2018-11-25T00:20:30.184Z,10.37
2018-11-25T00:24:42.338Z,9.80
2018-11-25T00:28:54.518Z,9.50
2018-11-25T00:33:06.721Z,10.10
2018-11-25T00:37:19.147Z,9.23
2018-11-25T00:41:31.945Z,8.90
2018-11-25T00:45:45.216Z,9.27
2018-11-25T00:49:57.595Z,8.53
2018-11-25T00:54:10.026Z,8.07
2018-11-25T00:58:22.137Z,7.80
2018-11-25T01:02:34.364Z,7.77
2018-11-25T01:06:46.551Z,7.57
2018-11-25T01:11:00.056Z,7.87
2018-11-25T01:15:18.841Z,7.80
2018-11-25T01:19:31.133Z,9.67
2018-11-25T01:23:43.307Z,9.33
2018-11-25T01:27:55.410Z,8.13
2018-11-25T01:32:07.463Z,8.70
2018-11-25T01:36:19.632Z,8.10
2018-11-25T01:40:31.688Z,7.80
2018-11-25T01:44:43.827Z,7.57
2018-11-25T01:48:55.889Z,8.30
2018-11-25T01:53:07.869Z,7.37
2018-11-25T01:57:19.978Z,7.43
2018-11-25T02:01:32.081Z,7.60
2018-11-25T02:05:44.262Z,6.50
2018-11-25T02:09:56.505Z,6.87
2018-11-25T02:14:08.813Z,8.10
2018-11-25T02:18:20.782Z,7.13
2018-11-25T02:22:32.941Z,6.87
2018-11-25T02:26:45.531Z,6.27
2018-11-25T02:30:57.923Z,6.30
2018-11-25T02:35:11.537Z,6.23
2018-11-25T02:39:24.114Z,6.70
2018-11-25T02:43:36.443Z,5.80
2018-11-25T02:47:48.615Z,5.00
2018-11-25T02:52:00.955Z,5.80
2018-11-25T02:56:13.238Z,5.50
2018-11-25T03:00:25.745Z,5.07
2018-11-25T03:04:37.979Z,5.20
2018-11-25T03:08:50.332Z,4.53
2018-11-25T03:13:02.522Z,4.70
2018-11-25T03:17:14.634Z,5.73
2018-11-25T03:21:26.776Z,5.37
2018-11-25T03:25:38.877Z,5.23
2018-11-25T03:29:50.989Z,5.13
2018-11-25T03:34:03.113Z,4.13
2018-11-25T03:38:15.275Z,4.70
2018-11-25T03:42:27.460Z,4.53
2018-11-25T03:46:39.648Z,3.67
2018-11-25T03:50:52.072Z,3.60
2018-11-25T03:55:04.340Z,4.47
2018-11-25T03:59:16.443Z,4.37
2018-11-25T04:03:28.519Z,3.83
2018-11-25T04:07:40.736Z,3.90
2018-11-25T04:11:52.973Z,3.90
2018-11-25T04:16:05.099Z,4.07
2018-11-25T04:20:19.893Z,4.10
2018-11-25T04:24:31.915Z,3.67
2018-11-25T04:28:44.067Z,4.00
2018-11-25T04:32:56.374Z,4.27
2018-11-25T04:37:08.464Z,4.40
2018-11-25T04:41:20.360Z,4.50
2018-11-25T04:45:32.395Z,5.13
2018-11-25T04:49:44.434Z,4.70
2018-11-25T04:53:57.780Z,4.33
2018-11-25T04:58:10.099Z,4.40
2018-11-25T05:02:22.444Z,3.70
2018-11-25T05:06:34.561Z,4.27
2018-11-25T05:10:46.679Z,3.73
2018-11-25T05:14:58.942Z,3.57
2018-11-25T05:19:11.520Z,3.97
2018-11-25T05:23:23.506Z,3.13
2018-11-25T05:27:35.525Z,3.40
2018-11-25T05:31:47.443Z,3.13
2018-11-25T05:35:59.608Z,2.87
2018-11-25T05:40:15.425Z,3.77
2018-11-25T05:44:27.416Z,3.27
2018-11-25T05:48:39.280Z,3.70
2018-11-25T05:52:52.538Z,3.60
2018-11-25T05:57:04.651Z,4.00
2018-11-25T06:01:16.980Z,3.10
2018-11-25T06:05:29.261Z,3.37
2018-11-25T06:09:41.478Z,2.80
2018-11-25T06:13:53.686Z,3.30
2018-11-25T06:18:05.853Z,3.33
2018-11-25T06:22:18.013Z,3.13
2018-11-25T06:26:30.419Z,3.37
2018-11-25T06:30:42.542Z,3.27
2018-11-25T06:34:54.922Z,3.03
2018-11-25T06:39:09.177Z,3.13
2018-11-25T06:43:21.442Z,2.83
2018-11-25T06:47:33.530Z,3.17
2018-11-25T06:51:45.640Z,3.47
2018-11-25T06:55:57.933Z,2.70
2018-11-25T07:00:12.767Z,3.40
2018-11-25T07:04:25.165Z,2.60
2018-11-25T07:08:37.337Z,2.63
2018-11-25T07:12:50.149Z,2.67
2018-11-25T07:17:02.164Z,2.97
2018-11-25T07:21:14.225Z,2.50
2018-11-25T07:25:26.680Z,2.53
2018-11-25T07:29:40.117Z,2.40
2018-11-25T07:33:52.354Z,3.10
2018-11-25T07:38:04.620Z,3.00
2018-11-25T07:42:16.862Z,2.70
2018-11-25T07:46:30.108Z,2.80
2018-11-25T07:50:42.236Z,2.20
2018-11-25T07:54:54.305Z,2.30
2018-11-25T07:59:06.632Z,2.33
2018-11-25T08:03:18.809Z,2.37
2018-11-25T08:07:30.790Z,2.30
2018-11-25T08:11:43.359Z,1.90
2018-11-25T08:15:55.457Z,2.13
2018-11-25T08:20:12.193Z,6.70
2018-11-25T08:24:24.353Z,2.00
2018-11-25T08:28:36.590Z,2.00
2018-11-25T08:32:48.940Z,1.67
2018-11-25T08:37:01.099Z,2.30
2018-11-25T08:41:14.468Z,2.00
2018-11-25T08:45:27.315Z,2.20
2018-11-25T08:49:39.586Z,2.30
2018-11-25T08:53:51.844Z,2.90
2018-11-25T08:58:03.959Z,2.53
2018-11-25T09:02:16.202Z,2.80
2018-11-25T09:06:28.208Z,2.80
2018-11-25T09:10:40.482Z,2.20
2018-11-25T09:14:52.638Z,2.57
2018-11-25T09:19:05.907Z,2.43
2018-11-25T09:23:18.223Z,3.57
2018-11-25T09:27:30.531Z,3.50
2018-11-25T09:31:42.828Z,3.53
2018-11-25T09:35:57.923Z,3.80
2018-11-25T09:40:18.059Z,3.73
2018-11-25T09:44:45.943Z,3.67
2018-11-25T09:48:58.129Z,3.37
2018-11-25T09:53:10.343Z,2.87
2018-11-25T09:57:22.497Z,2.90
2018-11-25T10:01:34.833Z,2.00
2018-11-25T10:05:47.217Z,2.50
2018-11-25T10:09:59.472Z,2.40
2018-11-25T10:14:11.555Z,3.27
2018-11-25T10:18:23.614Z,4.27
2018-11-25T10:22:35.789Z,2.70
2018-11-25T10:26:47.925Z,2.73
2018-11-25T10:31:01.554Z,2.73
2018-11-25T10:35:13.895Z,2.90
2018-11-25T10:39:27.812Z,3.30
2018-11-25T10:43:39.984Z,3.20
2018-11-25T10:47:52.053Z,2.40
2018-11-25T10:52:04.301Z,2.17
2018-11-25T10:56:16.885Z,2.67
2018-11-25T11:00:37.900Z,2.80
2018-11-25T11:04:54.695Z,3.13
2018-11-25T11:09:08.191Z,2.27
2018-11-25T11:13:20.475Z,2.40
2018-11-25T11:17:32.683Z,4.73
2018-11-25T11:21:45.339Z,3.47
2018-11-25T11:25:57.687Z,2.97
2018-11-25T11:30:13.163Z,2.13
2018-11-25T11:34:25.097Z,1.77
2018-11-25T11:38:37.152Z,1.67
2018-11-25T11:42:49.492Z,1.27
2018-11-25T11:47:01.613Z,1.60
2018-11-25T11:51:13.792Z,1.30
2018-11-25T11:55:25.830Z,1.13
2018-11-25T11:59:38.151Z,1.27
2018-11-25T12:03:50.396Z,1.30
2018-11-25T12:08:02.479Z,1.27
2018-11-25T12:12:14.687Z,1.00
2018-11-25T12:16:26.911Z,1.00
2018-11-25T12:20:39.766Z,1.30
2018-11-25T12:24:52.774Z,1.43
2018-11-25T12:29:04.877Z,1.50
2018-11-25T12:33:17.047Z,1.20
2018-11-25T12:37:29.301Z,1.30
2018-11-25T12:41:41.355Z,1.10
2018-11-25T12:45:53.449Z,0.80
2018-11-25T12:50:05.585Z,0.83
2018-11-25T12:54:17.788Z,0.60
2018-11-25T12:58:29.796Z,0.63
2018-11-25T13:02:41.935Z,0.63
2018-11-25T13:06:54.075Z,0.70
2018-11-25T13:11:06.353Z,1.13
2018-11-25T13:15:18.568Z,0.80
2018-11-25T13:19:30.685Z,0.47
2018-11-25T13:23:43.202Z,0.43
2018-11-25T13:27:55.259Z,0.60
2018-11-25T13:32:07.404Z,0.70
2018-11-25T13:36:19.486Z,0.60
2018-11-25T13:40:31.603Z,0.70
2018-11-25T13:44:45.984Z,0.70
2018-11-25T13:48:58.051Z,0.77
2018-11-25T13:53:10.479Z,0.80
2018-11-25T13:57:22.540Z,1.20
2018-11-25T14:01:34.639Z,0.90
2018-11-25T14:05:53.296Z,1.17
2018-11-25T14:09:58.821Z,1.10
2018-11-25T14:14:10.905Z,1.10
2018-11-25T14:18:22.963Z,1.90
2018-11-25T14:22:35.104Z,1.13
2018-11-25T14:26:55.974Z,1.70
2018-11-25T14:31:08.522Z,1.47
2018-11-25T14:35:20.881Z,1.07
2018-11-25T14:39:33.540Z,1.30
2018-11-25T14:43:45.588Z,1.50
2018-11-25T14:47:57.684Z,1.53
2018-11-25T14:52:10.031Z,1.10
2018-11-25T14:56:22.072Z,1.00
2018-11-25T15:00:34.237Z,0.93
2018-11-25T15:04:46.378Z,1.00
2018-11-25T15:08:58.637Z,1.30
2018-11-25T15:13:11.038Z,1.37
2018-11-25T15:17:23.075Z,1.30
2018-11-25T15:21:35.185Z,1.10
2018-11-25T15:25:51.623Z,1.20
2018-11-25T15:30:03.977Z,1.50
2018-11-25T15:34:17.785Z,1.70
2018-11-25T15:38:29.897Z,2.00
2018-11-25T15:42:42.109Z,1.43
2018-11-25T15:46:54.407Z,1.40
2018-11-25T15:51:07.407Z,1.33
2018-11-25T15:55:19.385Z,1.10
2018-11-25T15:59:31.368Z,1.50
2018-11-25T16:03:43.421Z,1.20
2018-11-25T16:07:55.763Z,1.30
2018-11-25T16:12:08.530Z,1.20
2018-11-25T16:16:21.089Z,1.53
2018-11-25T16:20:33.373Z,1.40
2018-11-25T16:24:45.533Z,1.60
2018-11-25T16:29:01.584Z,1.60
2018-11-25T16:33:13.674Z,1.53
2018-11-25T16:37:50.050Z,2.57
2018-11-25T16:42:03.278Z,3.20
2018-11-25T16:46:15.593Z,2.80
2018-11-25T16:51:07.725Z,4.87
2018-11-25T16:55:56.421Z,3.83
2018-11-25T17:00:42.768Z,2.67
2018-11-25T17:05:35.314Z,3.60
2018-11-25T17:10:30.759Z,4.30
2018-11-25T17:20:09.392Z,4.60
2018-11-25T17:25:00.515Z,6.23
2018-11-25T17:29:46.893Z,5.80
2018-11-25T17:34:34.639Z,5.70
2018-11-25T17:39:23.576Z,7.70
2018-11-25T17:44:02.088Z,8.20
2018-11-25T17:49:34.236Z,6.93
2018-11-25T17:53:49.146Z,7.93
2018-11-25T17:58:01.109Z,9.97
2018-11-25T18:02:13.254Z,8.17
2018-11-25T18:06:25.361Z,6.57
2018-11-25T18:10:37.561Z,7.50
2018-11-25T18:14:49.621Z,6.47
2018-11-25T18:19:11.656Z,6.47
2018-11-25T18:23:23.829Z,8.03
2018-11-25T18:27:35.965Z,12.83
2018-11-25T18:31:48.209Z,12.17
2018-11-25T18:36:00.320Z,12.10
2018-11-25T18:40:16.418Z,10.27
2018-11-25T18:44:28.801Z,9.03
2018-11-25T18:48:43.940Z,8.70
2018-11-25T18:52:56.505Z,9.73
2018-11-25T18:57:08.765Z,10.67
2018-11-25T19:01:25.424Z,10.23
2018-11-25T19:05:38.089Z,10.53
2018-11-25T19:09:50.434Z,11.10
2018-11-25T19:14:02.437Z,11.07
2018-11-25T19:18:14.478Z,10.33
2018-11-25T19:22:26.723Z,12.63
2018-11-25T19:26:38.825Z,12.67
2018-11-25T19:30:50.969Z,14.60
2018-11-25T19:35:03.057Z,15.17
2018-11-25T19:39:15.144Z,15.43
2018-11-25T19:43:27.694Z,15.03
2018-11-25T19:47:39.831Z,17.53
2018-11-25T19:51:52.104Z,17.10
2018-11-25T19:56:04.071Z,15.60
2018-11-25T20:00:17.376Z,13.60
2018-11-25T20:04:29.639Z,13.00
2018-11-25T20:08:42.398Z,12.73
2018-11-25T20:12:57.601Z,13.07
2018-11-25T20:17:14.406Z,13.00
2018-11-25T20:21:31.874Z,11.23
2018-11-25T20:25:43.797Z,9.47
2018-11-25T20:29:55.937Z,11.20
2018-11-25T20:34:08.011Z,11.20
2018-11-25T20:38:24.646Z,9.70
2018-11-25T20:42:36.845Z,8.37
2018-11-25T20:46:53.639Z,8.27
2018-11-25T20:51:06.171Z,7.70
2018-11-25T20:55:18.287Z,8.00
2018-11-25T20:59:30.372Z,10.17
2018-11-25T21:03:42.875Z,11.03
2018-11-25T21:07:54.810Z,9.97
2018-11-25T21:12:07.214Z,11.47
2018-11-25T21:16:19.233Z,10.20
2018-11-25T21:20:31.272Z,11.80
2018-11-25T21:24:43.832Z,14.50
2018-11-25T21:28:55.936Z,15.40
2018-11-25T21:33:08.018Z,12.77
2018-11-25T21:37:30.220Z,13.57
2018-11-25T21:41:58.555Z,12.30
2018-11-25T21:46:19.908Z,12.37
2018-11-25T21:50:32.895Z,11.57
2018-11-25T21:54:45.348Z,11.77
2018-11-25T21:59:04.036Z,11.03
2018-11-25T22:03:16.197Z,11.60
2018-11-25T22:07:28.205Z,12.10
2018-11-25T22:11:40.429Z,12.47
2018-11-25T22:15:52.645Z,17.23
2018-11-25T22:20:05.115Z,16.83
2018-11-25T22:24:17.140Z,16.57
2018-11-25T22:28:29.390Z,17.63
2018-11-25T22:32:41.601Z,18.53
2018-11-25T22:36:53.738Z,18.20
2018-11-25T22:41:06.052Z,20.43
2018-11-25T22:45:18.951Z,24.13
2018-11-25T22:49:30.881Z,28.07
2018-11-25T22:53:42.985Z,27.63
2018-11-25T22:57:55.711Z,29.90
2018-11-25T23:02:08.112Z,26.10
2018-11-25T23:06:30.136Z,24.17
2018-11-25T23:10:42.752Z,23.17
2018-11-25T23:14:54.693Z,21.70
2018-11-25T23:19:07.149Z,18.57
2018-11-25T23:23:22.639Z,16.50
2018-11-25T23:28:10.344Z,15.03
2018-11-25T23:32:51.485Z,14.43
2018-11-25T23:37:36.089Z,14.53
2018-11-25T23:41:49.543Z,13.20
2018-11-25T23:46:01.747Z,12.77
2018-11-25T23:50:14.829Z,14.17
2018-11-25T23:54:26.791Z,14.23
2018-11-25T23:58:38.986Z,13.97
